sensor_id;sensor_type;location;lat;lon;timestamp;P1;durP1;ratioP1;P2;durP2;ratioP2
43986;SDS011;29650;47.378;8.300;2023-09-07T00:01:30;6.97;;;3.80;;
43986;SDS011;29650;47.378;8.300;2023-09-07T00:03:57;7.28;;;4.05;;
43986;SDS011;29650;47.378;8.300;2023-09-07T00:06:24;5.30;;;4.30;;
43986;SDS011;29650;47.378;8.300;2023-09-07T00:08:53;6.18;;;4.43;;
43986;SDS011;29650;47.378;8.300;2023-09-07T00:11:21;7.93;;;4.72;;
43986;SDS011;29650;47.378;8.300;2023-09-07T00:13:48;8.27;;;4.60;;
43986;SDS011;29650;47.378;8.300;2023-09-07T00:16:15;7.57;;;4.82;;
43986;SDS011;29650;47.378;8.300;2023-09-07T00:18:42;5.28;;;4.38;;
43986;SDS011;29650;47.378;8.300;2023-09-07T00:21:09;5.65;;;4.22;;
43986;SDS011;29650;47.378;8.300;2023-09-07T00:23:36;6.90;;;4.07;;
43986;SDS011;29650;47.378;8.300;2023-09-07T00:26:06;5.53;;;4.45;;
43986;SDS011;29650;47.378;8.300;2023-09-07T00:28:33;6.28;;;4.60;;
43986;SDS011;29650;47.378;8.300;2023-09-07T00:31:00;6.75;;;4.10;;
43986;SDS011;29650;47.378;8.300;2023-09-07T00:33:27;5.80;;;3.38;;
43986;SDS011;29650;47.378;8.300;2023-09-07T00:35:54;8.77;;;4.00;;
43986;SDS011;29650;47.378;8.300;2023-09-07T00:38:21;8.43;;;4.15;;
43986;SDS011;29650;47.378;8.300;2023-09-07T00:40:47;8.65;;;4.30;;
43986;SDS011;29650;47.378;8.300;2023-09-07T00:43:16;6.10;;;4.07;;
43986;SDS011;29650;47.378;8.300;2023-09-07T00:45:43;8.10;;;4.13;;
43986;SDS011;29650;47.378;8.300;2023-09-07T00:48:11;6.53;;;3.85;;
43986;SDS011;29650;47.378;8.300;2023-09-07T00:50:39;6.05;;;3.67;;
43986;SDS011;29650;47.378;8.300;2023-09-07T00:53:06;5.15;;;4.07;;
43986;SDS011;29650;47.378;8.300;2023-09-07T00:55:34;7.43;;;4.10;;
43986;SDS011;29650;47.378;8.300;2023-09-07T00:58:02;6.27;;;3.80;;
43986;SDS011;29650;47.378;8.300;2023-09-07T01:00:31;4.88;;;4.38;;
43986;SDS011;29650;47.378;8.300;2023-09-07T01:03:00;4.68;;;4.00;;
43986;SDS011;29650;47.378;8.300;2023-09-07T01:05:27;8.40;;;3.78;;
43986;SDS011;29650;47.378;8.300;2023-09-07T01:08:02;9.38;;;4.05;;
43986;SDS011;29650;47.378;8.300;2023-09-07T01:10:35;5.78;;;3.80;;
43986;SDS011;29650;47.378;8.300;2023-09-07T01:13:02;4.43;;;4.03;;
43986;SDS011;29650;47.378;8.300;2023-09-07T01:15:29;5.07;;;3.90;;
43986;SDS011;29650;47.378;8.300;2023-09-07T01:17:57;6.10;;;4.05;;
43986;SDS011;29650;47.378;8.300;2023-09-07T01:20:25;7.25;;;4.47;;
43986;SDS011;29650;47.378;8.300;2023-09-07T01:22:54;5.45;;;3.85;;
43986;SDS011;29650;47.378;8.300;2023-09-07T01:25:21;6.93;;;4.13;;
43986;SDS011;29650;47.378;8.300;2023-09-07T01:27:50;6.38;;;4.25;;
43986;SDS011;29650;47.378;8.300;2023-09-07T01:30:17;8.82;;;4.80;;
43986;SDS011;29650;47.378;8.300;2023-09-07T01:32:44;5.63;;;4.60;;
43986;SDS011;29650;47.378;8.300;2023-09-07T01:35:11;10.40;;;5.40;;
43986;SDS011;29650;47.378;8.300;2023-09-07T01:37:43;5.53;;;4.68;;
43986;SDS011;29650;47.378;8.300;2023-09-07T01:40:11;6.70;;;4.90;;
43986;SDS011;29650;47.378;8.300;2023-09-07T01:42:38;9.27;;;4.40;;
43986;SDS011;29650;47.378;8.300;2023-09-07T01:45:06;6.32;;;4.35;;
43986;SDS011;29650;47.378;8.300;2023-09-07T01:47:33;5.25;;;4.30;;
43986;SDS011;29650;47.378;8.300;2023-09-07T01:50:00;5.93;;;3.75;;
43986;SDS011;29650;47.378;8.300;2023-09-07T01:52:27;8.02;;;4.30;;
43986;SDS011;29650;47.378;8.300;2023-09-07T01:54:56;17.80;;;3.83;;
43986;SDS011;29650;47.378;8.300;2023-09-07T01:57:24;8.55;;;3.95;;
43986;SDS011;29650;47.378;8.300;2023-09-07T01:59:51;6.50;;;4.63;;
43986;SDS011;29650;47.378;8.300;2023-09-07T02:02:18;8.23;;;4.05;;
43986;SDS011;29650;47.378;8.300;2023-09-07T02:04:45;7.88;;;4.32;;
43986;SDS011;29650;47.378;8.300;2023-09-07T02:07:12;7.40;;;3.85;;
43986;SDS011;29650;47.378;8.300;2023-09-07T02:09:40;8.60;;;4.35;;
43986;SDS011;29650;47.378;8.300;2023-09-07T02:12:07;5.15;;;3.90;;
43986;SDS011;29650;47.378;8.300;2023-09-07T02:14:37;6.70;;;4.30;;
43986;SDS011;29650;47.378;8.300;2023-09-07T02:17:04;7.85;;;4.20;;
43986;SDS011;29650;47.378;8.300;2023-09-07T02:19:31;4.97;;;4.03;;
43986;SDS011;29650;47.378;8.300;2023-09-07T02:21:58;7.57;;;4.22;;
43986;SDS011;29650;47.378;8.300;2023-09-07T02:24:25;5.38;;;4.30;;
43986;SDS011;29650;47.378;8.300;2023-09-07T02:26:52;6.32;;;4.05;;
43986;SDS011;29650;47.378;8.300;2023-09-07T02:29:19;5.45;;;4.35;;
43986;SDS011;29650;47.378;8.300;2023-09-07T02:31:47;4.65;;;3.50;;
43986;SDS011;29650;47.378;8.300;2023-09-07T02:34:14;6.63;;;4.28;;
43986;SDS011;29650;47.378;8.300;2023-09-07T02:36:41;6.53;;;4.22;;
43986;SDS011;29650;47.378;8.300;2023-09-07T02:39:08;9.90;;;3.85;;
43986;SDS011;29650;47.378;8.300;2023-09-07T02:41:36;8.20;;;4.82;;
43986;SDS011;29650;47.378;8.300;2023-09-07T02:44:03;7.63;;;4.43;;
43986;SDS011;29650;47.378;8.300;2023-09-07T02:46:31;9.13;;;4.88;;
43986;SDS011;29650;47.378;8.300;2023-09-07T02:48:59;8.10;;;4.72;;
43986;SDS011;29650;47.378;8.300;2023-09-07T02:51:26;17.70;;;5.85;;
43986;SDS011;29650;47.378;8.300;2023-09-07T02:53:53;8.55;;;4.70;;
43986;SDS011;29650;47.378;8.300;2023-09-07T02:56:20;8.13;;;4.70;;
43986;SDS011;29650;47.378;8.300;2023-09-07T02:58:47;14.23;;;5.05;;
43986;SDS011;29650;47.378;8.300;2023-09-07T03:01:14;6.00;;;3.88;;
43986;SDS011;29650;47.378;8.300;2023-09-07T03:03:45;5.32;;;4.35;;
43986;SDS011;29650;47.378;8.300;2023-09-07T03:06:15;7.50;;;3.90;;
43986;SDS011;29650;47.378;8.300;2023-09-07T03:08:42;7.97;;;3.95;;
43986;SDS011;29650;47.378;8.300;2023-09-07T03:11:09;5.03;;;3.92;;
43986;SDS011;29650;47.378;8.300;2023-09-07T03:13:37;10.85;;;4.63;;
43986;SDS011;29650;47.378;8.300;2023-09-07T03:16:04;6.38;;;4.32;;
43986;SDS011;29650;47.378;8.300;2023-09-07T03:18:31;7.47;;;4.72;;
43986;SDS011;29650;47.378;8.300;2023-09-07T03:20:59;4.35;;;3.90;;
43986;SDS011;29650;47.378;8.300;2023-09-07T03:23:28;5.68;;;4.00;;
43986;SDS011;29650;47.378;8.300;2023-09-07T03:25:55;5.43;;;4.30;;
43986;SDS011;29650;47.378;8.300;2023-09-07T03:28:23;7.30;;;4.38;;
43986;SDS011;29650;47.378;8.300;2023-09-07T03:30:50;6.65;;;4.72;;
43986;SDS011;29650;47.378;8.300;2023-09-07T03:33:17;5.22;;;4.22;;
43986;SDS011;29650;47.378;8.300;2023-09-07T03:35:44;7.95;;;5.03;;
43986;SDS011;29650;47.378;8.300;2023-09-07T03:38:12;10.50;;;4.57;;
43986;SDS011;29650;47.378;8.300;2023-09-07T03:40:41;7.55;;;5.00;;
43986;SDS011;29650;47.378;8.300;2023-09-07T03:43:08;8.75;;;5.43;;
43986;SDS011;29650;47.378;8.300;2023-09-07T03:45:35;8.30;;;5.32;;
43986;SDS011;29650;47.378;8.300;2023-09-07T03:48:03;8.68;;;4.95;;
43986;SDS011;29650;47.378;8.300;2023-09-07T03:50:30;10.88;;;5.40;;
43986;SDS011;29650;47.378;8.300;2023-09-07T03:52:57;23.30;;;5.10;;
43986;SDS011;29650;47.378;8.300;2023-09-07T03:55:24;8.60;;;5.65;;
43986;SDS011;29650;47.378;8.300;2023-09-07T03:57:53;7.43;;;5.50;;
43986;SDS011;29650;47.378;8.300;2023-09-07T04:00:19;6.18;;;4.47;;
43986;SDS011;29650;47.378;8.300;2023-09-07T04:02:47;7.18;;;5.95;;
43986;SDS011;29650;47.378;8.300;2023-09-07T04:05:14;7.00;;;5.20;;
43986;SDS011;29650;47.378;8.300;2023-09-07T04:07:40;7.35;;;5.30;;
43986;SDS011;29650;47.378;8.300;2023-09-07T04:10:07;5.57;;;4.43;;
43986;SDS011;29650;47.378;8.300;2023-09-07T04:12:35;9.77;;;4.80;;
43986;SDS011;29650;47.378;8.300;2023-09-07T04:15:03;4.85;;;3.78;;
43986;SDS011;29650;47.378;8.300;2023-09-07T04:17:31;7.45;;;3.97;;
43986;SDS011;29650;47.378;8.300;2023-09-07T04:20:05;9.60;;;5.15;;
43986;SDS011;29650;47.378;8.300;2023-09-07T04:22:33;11.35;;;5.55;;
43986;SDS011;29650;47.378;8.300;2023-09-07T04:25:00;11.05;;;5.00;;
43986;SDS011;29650;47.378;8.300;2023-09-07T04:27:27;6.85;;;5.05;;
43986;SDS011;29650;47.378;8.300;2023-09-07T04:29:54;6.45;;;4.45;;
43986;SDS011;29650;47.378;8.300;2023-09-07T04:32:22;7.63;;;4.57;;
43986;SDS011;29650;47.378;8.300;2023-09-07T04:34:52;6.25;;;5.10;;
43986;SDS011;29650;47.378;8.300;2023-09-07T04:37:21;9.68;;;4.43;;
43986;SDS011;29650;47.378;8.300;2023-09-07T04:39:50;5.35;;;4.28;;
43986;SDS011;29650;47.378;8.300;2023-09-07T04:42:17;9.68;;;5.35;;
43986;SDS011;29650;47.378;8.300;2023-09-07T04:44:45;6.25;;;4.75;;
43986;SDS011;29650;47.378;8.300;2023-09-07T04:47:12;11.00;;;5.45;;
43986;SDS011;29650;47.378;8.300;2023-09-07T04:49:40;10.30;;;4.78;;
43986;SDS011;29650;47.378;8.300;2023-09-07T04:52:06;10.88;;;5.00;;
43986;SDS011;29650;47.378;8.300;2023-09-07T04:54:34;7.55;;;4.65;;
43986;SDS011;29650;47.378;8.300;2023-09-07T04:57:01;8.18;;;4.88;;
43986;SDS011;29650;47.378;8.300;2023-09-07T04:59:28;6.65;;;4.60;;
43986;SDS011;29650;47.378;8.300;2023-09-07T05:01:58;10.38;;;5.80;;
43986;SDS011;29650;47.378;8.300;2023-09-07T05:04:25;7.65;;;5.30;;
43986;SDS011;29650;47.378;8.300;2023-09-07T05:06:54;12.27;;;6.25;;
43986;SDS011;29650;47.378;8.300;2023-09-07T05:09:25;7.65;;;5.32;;
43986;SDS011;29650;47.378;8.300;2023-09-07T05:11:54;7.53;;;5.55;;
43986;SDS011;29650;47.378;8.300;2023-09-07T05:14:21;9.55;;;5.72;;
43986;SDS011;29650;47.378;8.300;2023-09-07T05:16:49;8.80;;;5.47;;
43986;SDS011;29650;47.378;8.300;2023-09-07T05:19:17;5.82;;;5.25;;
43986;SDS011;29650;47.378;8.300;2023-09-07T05:21:43;7.32;;;5.43;;
43986;SDS011;29650;47.378;8.300;2023-09-07T05:24:13;8.05;;;5.25;;
43986;SDS011;29650;47.378;8.300;2023-09-07T05:26:41;8.77;;;5.10;;
43986;SDS011;29650;47.378;8.300;2023-09-07T05:29:08;7.45;;;5.60;;
43986;SDS011;29650;47.378;8.300;2023-09-07T05:31:35;8.98;;;6.40;;
43986;SDS011;29650;47.378;8.300;2023-09-07T05:34:02;6.88;;;5.20;;
43986;SDS011;29650;47.378;8.300;2023-09-07T05:36:29;10.00;;;6.28;;
43986;SDS011;29650;47.378;8.300;2023-09-07T05:38:56;11.20;;;5.70;;
43986;SDS011;29650;47.378;8.300;2023-09-07T05:41:25;8.88;;;6.07;;
43986;SDS011;29650;47.378;8.300;2023-09-07T05:43:52;6.45;;;5.43;;
43986;SDS011;29650;47.378;8.300;2023-09-07T05:46:19;10.35;;;5.22;;
43986;SDS011;29650;47.378;8.300;2023-09-07T05:48:46;8.88;;;5.25;;
43986;SDS011;29650;47.378;8.300;2023-09-07T05:51:13;12.57;;;6.28;;
43986;SDS011;29650;47.378;8.300;2023-09-07T05:53:40;12.02;;;5.68;;
43986;SDS011;29650;47.378;8.300;2023-09-07T05:56:07;9.05;;;5.10;;
43986;SDS011;29650;47.378;8.300;2023-09-07T05:58:35;9.07;;;5.60;;
43986;SDS011;29650;47.378;8.300;2023-09-07T06:01:02;8.90;;;6.68;;
43986;SDS011;29650;47.378;8.300;2023-09-07T06:03:30;8.20;;;6.18;;
43986;SDS011;29650;47.378;8.300;2023-09-07T06:05:58;11.38;;;5.63;;
43986;SDS011;29650;47.378;8.300;2023-09-07T06:08:25;12.80;;;6.55;;
43986;SDS011;29650;47.378;8.300;2023-09-07T06:10:53;22.58;;;6.75;;
43986;SDS011;29650;47.378;8.300;2023-09-07T06:13:20;18.23;;;6.65;;
43986;SDS011;29650;47.378;8.300;2023-09-07T06:15:48;18.85;;;6.93;;
43986;SDS011;29650;47.378;8.300;2023-09-07T06:18:15;9.43;;;6.00;;
43986;SDS011;29650;47.378;8.300;2023-09-07T06:20:42;10.18;;;5.93;;
43986;SDS011;29650;47.378;8.300;2023-09-07T06:23:09;12.88;;;6.22;;
43986;SDS011;29650;47.378;8.300;2023-09-07T06:25:38;10.85;;;6.03;;
43986;SDS011;29650;47.378;8.300;2023-09-07T06:28:05;12.70;;;6.57;;
43986;SDS011;29650;47.378;8.300;2023-09-07T06:30:32;12.20;;;7.22;;
43986;SDS011;29650;47.378;8.300;2023-09-07T06:33:01;16.02;;;6.60;;
43986;SDS011;29650;47.378;8.300;2023-09-07T06:35:28;13.10;;;6.10;;
43986;SDS011;29650;47.378;8.300;2023-09-07T06:37:55;8.23;;;5.85;;
43986;SDS011;29650;47.378;8.300;2023-09-07T06:40:22;12.70;;;6.75;;
43986;SDS011;29650;47.378;8.300;2023-09-07T06:42:51;15.10;;;7.35;;
43986;SDS011;29650;47.378;8.300;2023-09-07T06:45:18;12.85;;;6.95;;
43986;SDS011;29650;47.378;8.300;2023-09-07T06:47:45;11.45;;;6.32;;
43986;SDS011;29650;47.378;8.300;2023-09-07T06:50:13;11.38;;;6.28;;
43986;SDS011;29650;47.378;8.300;2023-09-07T06:52:40;24.80;;;7.18;;
43986;SDS011;29650;47.378;8.300;2023-09-07T06:55:07;11.25;;;6.80;;
43986;SDS011;29650;47.378;8.300;2023-09-07T06:57:34;9.00;;;5.72;;
43986;SDS011;29650;47.378;8.300;2023-09-07T07:00:01;9.57;;;6.65;;
43986;SDS011;29650;47.378;8.300;2023-09-07T07:02:30;9.88;;;6.47;;
43986;SDS011;29650;47.378;8.300;2023-09-07T07:04:57;9.35;;;6.07;;
43986;SDS011;29650;47.378;8.300;2023-09-07T07:07:25;13.35;;;6.97;;
43986;SDS011;29650;47.378;8.300;2023-09-07T07:09:52;10.85;;;6.30;;
43986;SDS011;29650;47.378;8.300;2023-09-07T07:12:19;9.65;;;6.30;;
43986;SDS011;29650;47.378;8.300;2023-09-07T07:14:47;9.60;;;6.70;;
43986;SDS011;29650;47.378;8.300;2023-09-07T07:17:14;29.33;;;8.23;;
43986;SDS011;29650;47.378;8.300;2023-09-07T07:19:41;13.32;;;6.63;;
43986;SDS011;29650;47.378;8.300;2023-09-07T07:22:08;12.38;;;6.93;;
43986;SDS011;29650;47.378;8.300;2023-09-07T07:24:36;12.52;;;6.32;;
43986;SDS011;29650;47.378;8.300;2023-09-07T07:27:03;21.60;;;6.63;;
43986;SDS011;29650;47.378;8.300;2023-09-07T07:29:30;13.05;;;6.13;;
43986;SDS011;29650;47.378;8.300;2023-09-07T07:31:57;9.10;;;5.95;;
43986;SDS011;29650;47.378;8.300;2023-09-07T07:34:24;11.82;;;6.78;;
43986;SDS011;29650;47.378;8.300;2023-09-07T07:36:51;10.55;;;6.03;;
43986;SDS011;29650;47.378;8.300;2023-09-07T07:39:18;11.18;;;5.70;;
43986;SDS011;29650;47.378;8.300;2023-09-07T07:41:47;21.15;;;6.45;;
43986;SDS011;29650;47.378;8.300;2023-09-07T07:44:14;9.63;;;5.53;;
43986;SDS011;29650;47.378;8.300;2023-09-07T07:46:41;16.95;;;6.38;;
43986;SDS011;29650;47.378;8.300;2023-09-07T07:49:07;15.95;;;6.72;;
43986;SDS011;29650;47.378;8.300;2023-09-07T07:51:34;10.30;;;5.53;;
43986;SDS011;29650;47.378;8.300;2023-09-07T07:54:02;9.30;;;5.68;;
43986;SDS011;29650;47.378;8.300;2023-09-07T07:56:29;8.77;;;5.75;;
43986;SDS011;29650;47.378;8.300;2023-09-07T07:58:58;10.13;;;5.30;;
43986;SDS011;29650;47.378;8.300;2023-09-07T08:01:24;10.32;;;5.90;;
43986;SDS011;29650;47.378;8.300;2023-09-07T08:03:51;9.30;;;5.80;;
43986;SDS011;29650;47.378;8.300;2023-09-07T08:06:19;10.73;;;6.47;;
43986;SDS011;29650;47.378;8.300;2023-09-07T08:08:46;12.23;;;5.97;;
43986;SDS011;29650;47.378;8.300;2023-09-07T08:11:12;12.40;;;6.15;;
43986;SDS011;29650;47.378;8.300;2023-09-07T08:13:40;9.40;;;5.75;;
43986;SDS011;29650;47.378;8.300;2023-09-07T08:18:37;10.35;;;4.90;;
43986;SDS011;29650;47.378;8.300;2023-09-07T08:21:05;11.23;;;5.60;;
43986;SDS011;29650;47.378;8.300;2023-09-07T08:23:32;7.65;;;4.97;;
43986;SDS011;29650;47.378;8.300;2023-09-07T08:25:59;12.07;;;5.68;;
43986;SDS011;29650;47.378;8.300;2023-09-07T08:28:25;8.32;;;5.22;;
43986;SDS011;29650;47.378;8.300;2023-09-07T08:30:54;11.63;;;5.50;;
43986;SDS011;29650;47.378;8.300;2023-09-07T08:33:25;14.70;;;5.25;;
43986;SDS011;29650;47.378;8.300;2023-09-07T08:35:54;6.55;;;4.95;;
43986;SDS011;29650;47.378;8.300;2023-09-07T08:38:22;9.73;;;5.30;;
43986;SDS011;29650;47.378;8.300;2023-09-07T08:40:53;8.15;;;5.60;;
43986;SDS011;29650;47.378;8.300;2023-09-07T08:43:21;6.73;;;5.07;;
43986;SDS011;29650;47.378;8.300;2023-09-07T08:45:54;7.10;;;5.50;;
43986;SDS011;29650;47.378;8.300;2023-09-07T08:48:27;8.75;;;5.72;;
43986;SDS011;29650;47.378;8.300;2023-09-07T08:50:55;12.68;;;6.13;;
43986;SDS011;29650;47.378;8.300;2023-09-07T08:53:23;8.77;;;5.40;;
43986;SDS011;29650;47.378;8.300;2023-09-07T08:55:52;7.70;;;5.28;;
43986;SDS011;29650;47.378;8.300;2023-09-07T08:58:19;6.28;;;4.88;;
43986;SDS011;29650;47.378;8.300;2023-09-07T09:00:46;8.80;;;4.78;;
43986;SDS011;29650;47.378;8.300;2023-09-07T09:03:14;5.82;;;4.85;;
43986;SDS011;29650;47.378;8.300;2023-09-07T09:05:42;6.13;;;5.45;;
43986;SDS011;29650;47.378;8.300;2023-09-07T09:08:10;6.43;;;5.43;;
43986;SDS011;29650;47.378;8.300;2023-09-07T09:10:37;5.82;;;5.15;;
43986;SDS011;29650;47.378;8.300;2023-09-07T09:13:05;7.15;;;5.47;;
43986;SDS011;29650;47.378;8.300;2023-09-07T09:15:32;10.63;;;5.78;;
43986;SDS011;29650;47.378;8.300;2023-09-07T09:18:08;7.85;;;5.63;;
43986;SDS011;29650;47.378;8.300;2023-09-07T09:20:37;9.85;;;6.45;;
43986;SDS011;29650;47.378;8.300;2023-09-07T09:23:06;10.55;;;6.30;;
43986;SDS011;29650;47.378;8.300;2023-09-07T09:25:33;6.40;;;5.72;;
43986;SDS011;29650;47.378;8.300;2023-09-07T09:28:00;10.32;;;5.57;;
43986;SDS011;29650;47.378;8.300;2023-09-07T09:30:27;11.10;;;6.00;;
43986;SDS011;29650;47.378;8.300;2023-09-07T09:32:54;10.20;;;5.93;;
43986;SDS011;29650;47.378;8.300;2023-09-07T09:35:21;7.18;;;5.60;;
43986;SDS011;29650;47.378;8.300;2023-09-07T09:37:49;6.40;;;5.78;;
43986;SDS011;29650;47.378;8.300;2023-09-07T09:40:18;10.70;;;6.10;;
43986;SDS011;29650;47.378;8.300;2023-09-07T09:42:45;9.30;;;6.93;;
43986;SDS011;29650;47.378;8.300;2023-09-07T09:45:12;9.38;;;6.03;;
43986;SDS011;29650;47.378;8.300;2023-09-07T09:47:39;9.93;;;5.53;;
43986;SDS011;29650;47.378;8.300;2023-09-07T09:50:08;6.85;;;5.57;;
43986;SDS011;29650;47.378;8.300;2023-09-07T09:52:36;7.35;;;5.03;;
43986;SDS011;29650;47.378;8.300;2023-09-07T09:55:04;9.70;;;5.88;;
43986;SDS011;29650;47.378;8.300;2023-09-07T09:57:35;8.02;;;5.95;;
43986;SDS011;29650;47.378;8.300;2023-09-07T10:00:02;8.98;;;5.82;;
43986;SDS011;29650;47.378;8.300;2023-09-07T10:02:45;7.65;;;5.82;;
43986;SDS011;29650;47.378;8.300;2023-09-07T10:05:16;6.78;;;5.80;;
43986;SDS011;29650;47.378;8.300;2023-09-07T10:07:45;7.43;;;6.32;;
43986;SDS011;29650;47.378;8.300;2023-09-07T10:10:14;6.43;;;4.97;;
43986;SDS011;29650;47.378;8.300;2023-09-07T10:12:43;8.27;;;5.65;;
43986;SDS011;29650;47.378;8.300;2023-09-07T10:15:21;11.40;;;5.90;;
43986;SDS011;29650;47.378;8.300;2023-09-07T10:17:48;7.50;;;5.45;;
43986;SDS011;29650;47.378;8.300;2023-09-07T10:20:18;7.63;;;5.60;;
43986;SDS011;29650;47.378;8.300;2023-09-07T10:22:47;8.40;;;5.35;;
43986;SDS011;29650;47.378;8.300;2023-09-07T10:25:18;11.70;;;5.30;;
43986;SDS011;29650;47.378;8.300;2023-09-07T10:27:48;9.15;;;6.10;;
43986;SDS011;29650;47.378;8.300;2023-09-07T10:30:15;13.00;;;6.10;;
43986;SDS011;29650;47.378;8.300;2023-09-07T10:35:12;12.45;;;6.07;;
43986;SDS011;29650;47.378;8.300;2023-09-07T10:37:44;9.88;;;5.38;;
43986;SDS011;29650;47.378;8.300;2023-09-07T10:40:12;10.57;;;5.47;;
43986;SDS011;29650;47.378;8.300;2023-09-07T10:42:44;10.20;;;5.47;;
43986;SDS011;29650;47.378;8.300;2023-09-07T10:45:13;9.63;;;5.72;;
43986;SDS011;29650;47.378;8.300;2023-09-07T10:47:42;7.53;;;6.13;;
43986;SDS011;29650;47.378;8.300;2023-09-07T10:50:10;11.07;;;5.63;;
43986;SDS011;29650;47.378;8.300;2023-09-07T10:52:39;9.15;;;5.18;;
43986;SDS011;29650;47.378;8.300;2023-09-07T10:55:07;6.72;;;5.30;;
43986;SDS011;29650;47.378;8.300;2023-09-07T10:57:41;8.32;;;4.80;;
43986;SDS011;29650;47.378;8.300;2023-09-07T11:00:10;5.65;;;4.57;;
43986;SDS011;29650;47.378;8.300;2023-09-07T11:02:40;9.73;;;5.93;;
43986;SDS011;29650;47.378;8.300;2023-09-07T11:05:08;5.70;;;5.20;;
43986;SDS011;29650;47.378;8.300;2023-09-07T11:07:36;7.03;;;5.63;;
43986;SDS011;29650;47.378;8.300;2023-09-07T11:10:05;8.30;;;5.32;;
43986;SDS011;29650;47.378;8.300;2023-09-07T11:12:36;6.53;;;5.28;;
43986;SDS011;29650;47.378;8.300;2023-09-07T11:15:04;9.88;;;5.65;;
43986;SDS011;29650;47.378;8.300;2023-09-07T11:17:36;6.28;;;4.70;;
43986;SDS011;29650;47.378;8.300;2023-09-07T11:20:07;8.68;;;4.72;;
43986;SDS011;29650;47.378;8.300;2023-09-07T11:22:35;5.50;;;4.93;;
43986;SDS011;29650;47.378;8.300;2023-09-07T11:25:04;7.47;;;4.93;;
43986;SDS011;29650;47.378;8.300;2023-09-07T11:27:31;6.57;;;4.55;;
43986;SDS011;29650;47.378;8.300;2023-09-07T11:29:58;7.43;;;5.07;;
43986;SDS011;29650;47.378;8.300;2023-09-07T11:32:32;6.55;;;4.22;;
43986;SDS011;29650;47.378;8.300;2023-09-07T11:35:00;7.00;;;5.05;;
43986;SDS011;29650;47.378;8.300;2023-09-07T11:37:29;7.32;;;5.05;;
43986;SDS011;29650;47.378;8.300;2023-09-07T11:39:57;4.57;;;4.10;;
43986;SDS011;29650;47.378;8.300;2023-09-07T11:42:24;5.22;;;4.32;;
43986;SDS011;29650;47.378;8.300;2023-09-07T11:44:51;7.50;;;4.50;;
43986;SDS011;29650;47.378;8.300;2023-09-07T11:47:17;7.15;;;4.18;;
43986;SDS011;29650;47.378;8.300;2023-09-07T11:49:44;6.30;;;4.38;;
43986;SDS011;29650;47.378;8.300;2023-09-07T11:52:11;5.40;;;4.50;;
43986;SDS011;29650;47.378;8.300;2023-09-07T11:54:39;8.43;;;4.50;;
43986;SDS011;29650;47.378;8.300;2023-09-07T11:57:06;6.18;;;4.22;;
43986;SDS011;29650;47.378;8.300;2023-09-07T11:59:34;7.55;;;4.43;;
43986;SDS011;29650;47.378;8.300;2023-09-07T12:02:01;5.15;;;4.65;;
43986;SDS011;29650;47.378;8.300;2023-09-07T12:04:28;8.10;;;4.20;;
43986;SDS011;29650;47.378;8.300;2023-09-07T12:06:55;6.85;;;4.20;;
43986;SDS011;29650;47.378;8.300;2023-09-07T12:09:22;6.35;;;3.75;;
43986;SDS011;29650;47.378;8.300;2023-09-07T12:11:51;7.40;;;4.10;;
43986;SDS011;29650;47.378;8.300;2023-09-07T12:14:17;9.45;;;3.75;;
43986;SDS011;29650;47.378;8.300;2023-09-07T12:16:44;9.68;;;3.92;;
43986;SDS011;29650;47.378;8.300;2023-09-07T12:19:11;7.75;;;3.55;;
43986;SDS011;29650;47.378;8.300;2023-09-07T12:21:38;6.32;;;3.67;;
43986;SDS011;29650;47.378;8.300;2023-09-07T12:24:07;5.05;;;3.80;;
43986;SDS011;29650;47.378;8.300;2023-09-07T12:26:34;10.13;;;3.75;;
43986;SDS011;29650;47.378;8.300;2023-09-07T12:29:03;7.55;;;3.80;;
43986;SDS011;29650;47.378;8.300;2023-09-07T12:31:31;6.85;;;4.15;;
43986;SDS011;29650;47.378;8.300;2023-09-07T12:33:58;5.93;;;3.75;;
43986;SDS011;29650;47.378;8.300;2023-09-07T12:36:25;4.93;;;3.47;;
43986;SDS011;29650;47.378;8.300;2023-09-07T12:38:55;3.72;;;3.20;;
43986;SDS011;29650;47.378;8.300;2023-09-07T12:41:26;5.47;;;4.10;;
43986;SDS011;29650;47.378;8.300;2023-09-07T12:43:53;6.10;;;3.67;;
43986;SDS011;29650;47.378;8.300;2023-09-07T12:46:21;8.82;;;3.60;;
43986;SDS011;29650;47.378;8.300;2023-09-07T12:48:48;6.60;;;3.27;;
43986;SDS011;29650;47.378;8.300;2023-09-07T12:51:15;6.63;;;3.30;;
43986;SDS011;29650;47.378;8.300;2023-09-07T12:53:42;8.00;;;3.47;;
43986;SDS011;29650;47.378;8.300;2023-09-07T12:56:09;5.78;;;3.60;;
43986;SDS011;29650;47.378;8.300;2023-09-07T12:58:36;9.63;;;3.78;;
43986;SDS011;29650;47.378;8.300;2023-09-07T13:01:03;4.68;;;3.30;;
43986;SDS011;29650;47.378;8.300;2023-09-07T13:03:31;6.22;;;3.72;;
43986;SDS011;29650;47.378;8.300;2023-09-07T13:05:58;5.50;;;3.22;;
43986;SDS011;29650;47.378;8.300;2023-09-07T13:08:25;8.60;;;3.60;;
43986;SDS011;29650;47.378;8.300;2023-09-07T13:10:54;6.30;;;3.55;;
43986;SDS011;29650;47.378;8.300;2023-09-07T13:13:22;4.28;;;3.50;;
43986;SDS011;29650;47.378;8.300;2023-09-07T13:15:51;5.53;;;3.13;;
43986;SDS011;29650;47.378;8.300;2023-09-07T13:18:18;6.25;;;3.25;;
43986;SDS011;29650;47.378;8.300;2023-09-07T13:20:46;4.90;;;3.03;;
43986;SDS011;29650;47.378;8.300;2023-09-07T13:23:14;7.07;;;2.80;;
43986;SDS011;29650;47.378;8.300;2023-09-07T13:25:41;4.95;;;2.80;;
43986;SDS011;29650;47.378;8.300;2023-09-07T13:28:08;4.95;;;2.75;;
43986;SDS011;29650;47.378;8.300;2023-09-07T13:30:35;6.13;;;3.22;;
43986;SDS011;29650;47.378;8.300;2023-09-07T13:33:02;7.90;;;3.35;;
43986;SDS011;29650;47.378;8.300;2023-09-07T13:35:30;5.28;;;2.85;;
43986;SDS011;29650;47.378;8.300;2023-09-07T13:37:58;3.92;;;2.83;;
43986;SDS011;29650;47.378;8.300;2023-09-07T13:40:25;7.22;;;2.72;;
43986;SDS011;29650;47.378;8.300;2023-09-07T13:42:54;6.72;;;3.33;;
43986;SDS011;29650;47.378;8.300;2023-09-07T13:45:21;4.78;;;3.40;;
43986;SDS011;29650;47.378;8.300;2023-09-07T13:47:48;6.72;;;3.00;;
43986;SDS011;29650;47.378;8.300;2023-09-07T13:50:15;5.50;;;3.20;;
43986;SDS011;29650;47.378;8.300;2023-09-07T13:52:42;6.18;;;2.80;;
43986;SDS011;29650;47.378;8.300;2023-09-07T13:55:11;7.93;;;2.67;;
43986;SDS011;29650;47.378;8.300;2023-09-07T13:57:37;3.60;;;2.50;;
43986;SDS011;29650;47.378;8.300;2023-09-07T14:00:05;6.68;;;2.80;;
43986;SDS011;29650;47.378;8.300;2023-09-07T14:02:32;6.80;;;2.80;;
43986;SDS011;29650;47.378;8.300;2023-09-07T14:04:59;4.35;;;2.90;;
43986;SDS011;29650;47.378;8.300;2023-09-07T14:07:27;6.60;;;3.33;;
43986;SDS011;29650;47.378;8.300;2023-09-07T14:09:54;6.15;;;3.17;;
43986;SDS011;29650;47.378;8.300;2023-09-07T14:12:23;4.00;;;2.80;;
43986;SDS011;29650;47.378;8.300;2023-09-07T14:14:50;5.68;;;2.90;;
43986;SDS011;29650;47.378;8.300;2023-09-07T14:17:17;7.10;;;2.70;;
43986;SDS011;29650;47.378;8.300;2023-09-07T14:19:44;6.05;;;2.83;;
43986;SDS011;29650;47.378;8.300;2023-09-07T14:22:11;10.38;;;2.92;;
43986;SDS011;29650;47.378;8.300;2023-09-07T14:24:38;7.97;;;2.63;;
43986;SDS011;29650;47.378;8.300;2023-09-07T14:27:05;8.05;;;2.90;;
43986;SDS011;29650;47.378;8.300;2023-09-07T14:29:35;5.90;;;2.90;;
43986;SDS011;29650;47.378;8.300;2023-09-07T14:32:02;4.97;;;3.10;;
43986;SDS011;29650;47.378;8.300;2023-09-07T14:34:29;5.63;;;3.10;;
43986;SDS011;29650;47.378;8.300;2023-09-07T14:36:56;7.93;;;3.10;;
43986;SDS011;29650;47.378;8.300;2023-09-07T14:39:23;8.05;;;2.80;;
43986;SDS011;29650;47.378;8.300;2023-09-07T14:41:50;6.35;;;2.53;;
43986;SDS011;29650;47.378;8.300;2023-09-07T14:44:18;5.35;;;2.78;;
43986;SDS011;29650;47.378;8.300;2023-09-07T14:46:47;3.75;;;3.15;;
43986;SDS011;29650;47.378;8.300;2023-09-07T14:49:15;3.15;;;2.63;;
43986;SDS011;29650;47.378;8.300;2023-09-07T14:51:42;5.13;;;2.88;;
43986;SDS011;29650;47.378;8.300;2023-09-07T14:54:10;4.05;;;2.50;;